sensor_id;sensor_type;location;lat;lon;timestamp;P1;durP1;ratioP1;P2;durP2;ratioP2
8228;SDS011;4155;50.118;8.714;2022-07-26T00:00:20;5.30;;;2.40;;
8228;SDS011;4155;50.118;8.714;2022-07-26T00:02:47;4.60;;;2.47;;
8228;SDS011;4155;50.118;8.714;2022-07-26T00:05:16;4.87;;;2.67;;
8228;SDS011;4155;50.118;8.714;2022-07-26T00:07:45;6.00;;;2.60;;
8228;SDS011;4155;50.118;8.714;2022-07-26T00:10:13;7.67;;;2.60;;
8228;SDS011;4155;50.118;8.714;2022-07-26T00:12:42;4.00;;;2.20;;
8228;SDS011;4155;50.118;8.714;2022-07-26T00:15:10;10.83;;;2.70;;
8228;SDS011;4155;50.118;8.714;2022-07-26T00:17:40;8.20;;;2.80;;
8228;SDS011;4155;50.118;8.714;2022-07-26T00:20:08;4.53;;;2.50;;
8228;SDS011;4155;50.118;8.714;2022-07-26T00:22:39;7.23;;;2.20;;
8228;SDS011;4155;50.118;8.714;2022-07-26T00:25:08;4.27;;;2.43;;
8228;SDS011;4155;50.118;8.714;2022-07-26T00:27:37;5.07;;;2.73;;
8228;SDS011;4155;50.118;8.714;2022-07-26T00:30:06;8.70;;;2.70;;
8228;SDS011;4155;50.118;8.714;2022-07-26T00:32:36;6.40;;;2.57;;
8228;SDS011;4155;50.118;8.714;2022-07-26T00:35:04;3.03;;;2.27;;
8228;SDS011;4155;50.118;8.714;2022-07-26T00:37:33;5.57;;;2.53;;
8228;SDS011;4155;50.118;8.714;2022-07-26T00:40:00;7.57;;;2.60;;
8228;SDS011;4155;50.118;8.714;2022-07-26T00:42:28;5.53;;;2.80;;
8228;SDS011;4155;50.118;8.714;2022-07-26T00:44:56;3.63;;;2.53;;
8228;SDS011;4155;50.118;8.714;2022-07-26T00:47:25;9.57;;;2.73;;
8228;SDS011;4155;50.118;8.714;2022-07-26T00:49:52;6.63;;;2.53;;
8228;SDS011;4155;50.118;8.714;2022-07-26T00:52:20;2.93;;;2.07;;
8228;SDS011;4155;50.118;8.714;2022-07-26T00:54:48;13.57;;;3.30;;
8228;SDS011;4155;50.118;8.714;2022-07-26T00:57:16;2.70;;;2.20;;
8228;SDS011;4155;50.118;8.714;2022-07-26T00:59:45;5.30;;;2.40;;
8228;SDS011;4155;50.118;8.714;2022-07-26T01:02:13;6.93;;;2.50;;
8228;SDS011;4155;50.118;8.714;2022-07-26T01:04:43;6.00;;;2.50;;
8228;SDS011;4155;50.118;8.714;2022-07-26T01:07:11;4.37;;;2.40;;
8228;SDS011;4155;50.118;8.714;2022-07-26T01:09:41;3.37;;;2.10;;
8228;SDS011;4155;50.118;8.714;2022-07-26T01:12:09;4.53;;;2.83;;
8228;SDS011;4155;50.118;8.714;2022-07-26T01:14:40;6.60;;;2.53;;
8228;SDS011;4155;50.118;8.714;2022-07-26T01:17:08;2.93;;;2.17;;
8228;SDS011;4155;50.118;8.714;2022-07-26T01:19:36;8.93;;;2.43;;
8228;SDS011;4155;50.118;8.714;2022-07-26T01:22:05;4.13;;;1.97;;
8228;SDS011;4155;50.118;8.714;2022-07-26T01:24:39;2.80;;;2.37;;
8228;SDS011;4155;50.118;8.714;2022-07-26T01:27:07;5.03;;;2.60;;
8228;SDS011;4155;50.118;8.714;2022-07-26T01:29:35;4.10;;;2.37;;
8228;SDS011;4155;50.118;8.714;2022-07-26T01:32:03;7.37;;;2.57;;
8228;SDS011;4155;50.118;8.714;2022-07-26T01:34:31;5.63;;;2.40;;
8228;SDS011;4155;50.118;8.714;2022-07-26T01:36:59;4.87;;;2.00;;
8228;SDS011;4155;50.118;8.714;2022-07-26T01:39:27;4.73;;;2.30;;
8228;SDS011;4155;50.118;8.714;2022-07-26T01:41:55;5.13;;;2.27;;
8228;SDS011;4155;50.118;8.714;2022-07-26T01:44:23;5.80;;;2.27;;
8228;SDS011;4155;50.118;8.714;2022-07-26T01:46:51;4.50;;;2.00;;
8228;SDS011;4155;50.118;8.714;2022-07-26T01:49:19;13.73;;;2.60;;
8228;SDS011;4155;50.118;8.714;2022-07-26T01:51:46;11.93;;;2.53;;
8228;SDS011;4155;50.118;8.714;2022-07-26T01:54:14;3.40;;;2.13;;
8228;SDS011;4155;50.118;8.714;2022-07-26T01:56:50;4.70;;;2.13;;
8228;SDS011;4155;50.118;8.714;2022-07-26T01:59:18;11.40;;;2.07;;
8228;SDS011;4155;50.118;8.714;2022-07-26T02:01:46;5.40;;;2.53;;
8228;SDS011;4155;50.118;8.714;2022-07-26T02:04:14;6.83;;;1.90;;
8228;SDS011;4155;50.118;8.714;2022-07-26T02:06:55;4.40;;;2.00;;
8228;SDS011;4155;50.118;8.714;2022-07-26T02:09:23;8.17;;;2.43;;
8228;SDS011;4155;50.118;8.714;2022-07-26T02:11:54;5.10;;;2.40;;
8228;SDS011;4155;50.118;8.714;2022-07-26T02:14:22;9.90;;;2.50;;
8228;SDS011;4155;50.118;8.714;2022-07-26T02:16:51;7.50;;;2.40;;
8228;SDS011;4155;50.118;8.714;2022-07-26T02:19:24;9.67;;;2.50;;
8228;SDS011;4155;50.118;8.714;2022-07-26T02:21:52;6.60;;;2.10;;
8228;SDS011;4155;50.118;8.714;2022-07-26T02:24:20;6.07;;;2.30;;
8228;SDS011;4155;50.118;8.714;2022-07-26T02:26:48;5.50;;;2.37;;
8228;SDS011;4155;50.118;8.714;2022-07-26T02:29:17;7.87;;;2.03;;
8228;SDS011;4155;50.118;8.714;2022-07-26T02:31:44;11.77;;;2.70;;
8228;SDS011;4155;50.118;8.714;2022-07-26T02:34:14;9.33;;;1.90;;
8228;SDS011;4155;50.118;8.714;2022-07-26T02:36:42;3.47;;;1.70;;
8228;SDS011;4155;50.118;8.714;2022-07-26T02:39:10;5.50;;;1.93;;
8228;SDS011;4155;50.118;8.714;2022-07-26T02:41:38;4.03;;;2.13;;
8228;SDS011;4155;50.118;8.714;2022-07-26T02:44:05;5.80;;;2.10;;
8228;SDS011;4155;50.118;8.714;2022-07-26T02:46:36;5.40;;;2.10;;
8228;SDS011;4155;50.118;8.714;2022-07-26T02:49:04;2.27;;;1.50;;
8228;SDS011;4155;50.118;8.714;2022-07-26T02:51:32;9.83;;;2.20;;
8228;SDS011;4155;50.118;8.714;2022-07-26T02:54:00;10.53;;;2.13;;
8228;SDS011;4155;50.118;8.714;2022-07-26T02:56:27;5.07;;;1.40;;
8228;SDS011;4155;50.118;8.714;2022-07-26T02:58:55;3.93;;;1.70;;
8228;SDS011;4155;50.118;8.714;2022-07-26T03:01:23;12.60;;;2.23;;
8228;SDS011;4155;50.118;8.714;2022-07-26T03:03:52;9.27;;;1.97;;
8228;SDS011;4155;50.118;8.714;2022-07-26T03:06:20;3.03;;;1.60;;
8228;SDS011;4155;50.118;8.714;2022-07-26T03:08:47;1.93;;;1.47;;
8228;SDS011;4155;50.118;8.714;2022-07-26T03:11:16;8.80;;;1.73;;
8228;SDS011;4155;50.118;8.714;2022-07-26T03:13:43;5.70;;;1.40;;
8228;SDS011;4155;50.118;8.714;2022-07-26T03:16:11;4.30;;;2.00;;
8228;SDS011;4155;50.118;8.714;2022-07-26T03:18:39;4.80;;;1.80;;
8228;SDS011;4155;50.118;8.714;2022-07-26T03:21:08;4.93;;;2.07;;
8228;SDS011;4155;50.118;8.714;2022-07-26T03:23:35;5.63;;;2.20;;
8228;SDS011;4155;50.118;8.714;2022-07-26T03:26:03;6.53;;;2.00;;
8228;SDS011;4155;50.118;8.714;2022-07-26T03:28:31;6.03;;;2.17;;
8228;SDS011;4155;50.118;8.714;2022-07-26T03:30:59;5.53;;;1.83;;
8228;SDS011;4155;50.118;8.714;2022-07-26T03:33:27;2.30;;;1.47;;
8228;SDS011;4155;50.118;8.714;2022-07-26T03:35:56;5.17;;;2.00;;
8228;SDS011;4155;50.118;8.714;2022-07-26T03:38:27;6.30;;;1.90;;
8228;SDS011;4155;50.118;8.714;2022-07-26T03:40:55;5.30;;;2.50;;
8228;SDS011;4155;50.118;8.714;2022-07-26T03:43:22;4.07;;;1.60;;
8228;SDS011;4155;50.118;8.714;2022-07-26T03:45:50;8.70;;;1.73;;
8228;SDS011;4155;50.118;8.714;2022-07-26T03:48:20;11.57;;;2.63;;
8228;SDS011;4155;50.118;8.714;2022-07-26T03:50:47;6.83;;;2.13;;
8228;SDS011;4155;50.118;8.714;2022-07-26T03:53:15;3.70;;;1.80;;
8228;SDS011;4155;50.118;8.714;2022-07-26T03:55:44;4.43;;;1.80;;
8228;SDS011;4155;50.118;8.714;2022-07-26T03:58:29;4.57;;;2.10;;
8228;SDS011;4155;50.118;8.714;2022-07-26T04:00:57;5.30;;;2.10;;
8228;SDS011;4155;50.118;8.714;2022-07-26T04:03:24;4.67;;;1.80;;
8228;SDS011;4155;50.118;8.714;2022-07-26T04:05:52;6.83;;;2.20;;
8228;SDS011;4155;50.118;8.714;2022-07-26T04:08:21;6.93;;;2.50;;
8228;SDS011;4155;50.118;8.714;2022-07-26T04:10:50;2.50;;;1.67;;
8228;SDS011;4155;50.118;8.714;2022-07-26T04:13:17;2.37;;;1.77;;
8228;SDS011;4155;50.118;8.714;2022-07-26T04:15:45;5.90;;;1.90;;
8228;SDS011;4155;50.118;8.714;2022-07-26T04:18:13;4.40;;;1.97;;
8228;SDS011;4155;50.118;8.714;2022-07-26T04:20:41;9.90;;;1.40;;
8228;SDS011;4155;50.118;8.714;2022-07-26T04:23:10;2.23;;;1.63;;
8228;SDS011;4155;50.118;8.714;2022-07-26T04:25:38;6.00;;;2.03;;
8228;SDS011;4155;50.118;8.714;2022-07-26T04:28:10;3.30;;;1.77;;
8228;SDS011;4155;50.118;8.714;2022-07-26T04:30:38;3.20;;;1.90;;
8228;SDS011;4155;50.118;8.714;2022-07-26T04:33:06;4.10;;;1.97;;
8228;SDS011;4155;50.118;8.714;2022-07-26T04:35:34;2.60;;;1.43;;
8228;SDS011;4155;50.118;8.714;2022-07-26T04:38:02;4.13;;;1.60;;
8228;SDS011;4155;50.118;8.714;2022-07-26T04:40:30;5.30;;;1.67;;
8228;SDS011;4155;50.118;8.714;2022-07-26T04:43:06;15.50;;;2.00;;
8228;SDS011;4155;50.118;8.714;2022-07-26T04:45:42;5.30;;;1.90;;
8228;SDS011;4155;50.118;8.714;2022-07-26T04:48:10;3.87;;;2.20;;
8228;SDS011;4155;50.118;8.714;2022-07-26T04:50:40;4.50;;;1.60;;
8228;SDS011;4155;50.118;8.714;2022-07-26T04:53:08;4.17;;;1.87;;
8228;SDS011;4155;50.118;8.714;2022-07-26T04:55:37;3.73;;;1.70;;
8228;SDS011;4155;50.118;8.714;2022-07-26T04:58:05;6.33;;;1.70;;
8228;SDS011;4155;50.118;8.714;2022-07-26T05:00:33;2.00;;;1.47;;
8228;SDS011;4155;50.118;8.714;2022-07-26T05:03:22;2.43;;;1.30;;
8228;SDS011;4155;50.118;8.714;2022-07-26T05:05:51;5.37;;;1.97;;
8228;SDS011;4155;50.118;8.714;2022-07-26T05:08:19;8.53;;;1.70;;
8228;SDS011;4155;50.118;8.714;2022-07-26T05:10:46;3.70;;;1.50;;
8228;SDS011;4155;50.118;8.714;2022-07-26T05:13:20;3.73;;;1.80;;
8228;SDS011;4155;50.118;8.714;2022-07-26T05:15:56;6.17;;;2.00;;
8228;SDS011;4155;50.118;8.714;2022-07-26T05:18:26;5.97;;;2.03;;
8228;SDS011;4155;50.118;8.714;2022-07-26T05:20:57;3.03;;;1.50;;
8228;SDS011;4155;50.118;8.714;2022-07-26T05:23:25;4.50;;;1.87;;
8228;SDS011;4155;50.118;8.714;2022-07-26T05:25:52;7.70;;;1.60;;
8228;SDS011;4155;50.118;8.714;2022-07-26T05:28:20;3.03;;;1.73;;
8228;SDS011;4155;50.118;8.714;2022-07-26T05:30:48;6.10;;;1.67;;
8228;SDS011;4155;50.118;8.714;2022-07-26T05:33:16;3.13;;;1.50;;
8228;SDS011;4155;50.118;8.714;2022-07-26T05:35:45;3.17;;;1.60;;
8228;SDS011;4155;50.118;8.714;2022-07-26T05:38:13;10.23;;;1.93;;
8228;SDS011;4155;50.118;8.714;2022-07-26T05:40:40;6.67;;;1.63;;
8228;SDS011;4155;50.118;8.714;2022-07-26T05:43:15;2.43;;;1.50;;
8228;SDS011;4155;50.118;8.714;2022-07-26T05:45:43;9.80;;;1.97;;
8228;SDS011;4155;50.118;8.714;2022-07-26T05:48:10;2.23;;;1.10;;
8228;SDS011;4155;50.118;8.714;2022-07-26T05:50:39;6.40;;;1.70;;
8228;SDS011;4155;50.118;8.714;2022-07-26T05:53:08;3.60;;;1.70;;
8228;SDS011;4155;50.118;8.714;2022-07-26T05:55:35;6.87;;;1.87;;
8228;SDS011;4155;50.118;8.714;2022-07-26T05:58:03;10.13;;;1.80;;
8228;SDS011;4155;50.118;8.714;2022-07-26T06:00:31;9.13;;;2.10;;
8228;SDS011;4155;50.118;8.714;2022-07-26T06:02:59;11.27;;;1.97;;
8228;SDS011;4155;50.118;8.714;2022-07-26T06:05:46;5.03;;;2.03;;
8228;SDS011;4155;50.118;8.714;2022-07-26T06:08:16;3.83;;;2.13;;
8228;SDS011;4155;50.118;8.714;2022-07-26T06:10:45;6.40;;;1.93;;
8228;SDS011;4155;50.118;8.714;2022-07-26T06:13:13;6.03;;;2.00;;
8228;SDS011;4155;50.118;8.714;2022-07-26T06:15:41;3.10;;;2.03;;
8228;SDS011;4155;50.118;8.714;2022-07-26T06:18:10;4.70;;;2.00;;
8228;SDS011;4155;50.118;8.714;2022-07-26T06:20:38;5.70;;;1.80;;
8228;SDS011;4155;50.118;8.714;2022-07-26T06:23:06;2.83;;;1.90;;
8228;SDS011;4155;50.118;8.714;2022-07-26T06:25:35;2.27;;;1.63;;
8228;SDS011;4155;50.118;8.714;2022-07-26T06:28:04;5.37;;;1.93;;
8228;SDS011;4155;50.118;8.714;2022-07-26T06:30:34;11.30;;;1.57;;
8228;SDS011;4155;50.118;8.714;2022-07-26T06:33:02;5.60;;;1.87;;
8228;SDS011;4155;50.118;8.714;2022-07-26T06:35:30;2.77;;;1.53;;
8228;SDS011;4155;50.118;8.714;2022-07-26T06:38:00;5.17;;;1.60;;
8228;SDS011;4155;50.118;8.714;2022-07-26T06:40:29;2.60;;;1.37;;
8228;SDS011;4155;50.118;8.714;2022-07-26T06:42:58;2.80;;;1.50;;
8228;SDS011;4155;50.118;8.714;2022-07-26T06:45:29;3.33;;;1.70;;
8228;SDS011;4155;50.118;8.714;2022-07-26T06:47:58;8.70;;;2.17;;
8228;SDS011;4155;50.118;8.714;2022-07-26T06:50:25;2.83;;;1.53;;
8228;SDS011;4155;50.118;8.714;2022-07-26T06:52:53;3.45;;;2.35;;
8228;SDS011;4155;50.118;8.714;2022-07-26T06:55:21;6.75;;;1.48;;
8228;SDS011;4155;50.118;8.714;2022-07-26T06:57:49;4.30;;;1.65;;
8228;SDS011;4155;50.118;8.714;2022-07-26T07:00:18;6.03;;;1.42;;
8228;SDS011;4155;50.118;8.714;2022-07-26T07:02:45;2.25;;;1.27;;
8228;SDS011;4155;50.118;8.714;2022-07-26T07:05:13;5.93;;;1.30;;
8228;SDS011;4155;50.118;8.714;2022-07-26T07:07:41;2.92;;;1.58;;
8228;SDS011;4155;50.118;8.714;2022-07-26T07:10:09;2.42;;;1.50;;
8228;SDS011;4155;50.118;8.714;2022-07-26T07:12:38;3.70;;;1.48;;
8228;SDS011;4155;50.118;8.714;2022-07-26T07:15:07;3.63;;;1.50;;
8228;SDS011;4155;50.118;8.714;2022-07-26T07:17:36;3.47;;;1.77;;
8228;SDS011;4155;50.118;8.714;2022-07-26T07:20:05;2.97;;;1.50;;
8228;SDS011;4155;50.118;8.714;2022-07-26T07:22:33;4.13;;;1.25;;
8228;SDS011;4155;50.118;8.714;2022-07-26T07:25:00;2.35;;;1.48;;
8228;SDS011;4155;50.118;8.714;2022-07-26T07:27:31;4.53;;;1.48;;
8228;SDS011;4155;50.118;8.714;2022-07-26T07:29:58;3.05;;;1.38;;
8228;SDS011;4155;50.118;8.714;2022-07-26T07:32:26;3.65;;;1.38;;
8228;SDS011;4155;50.118;8.714;2022-07-26T07:34:56;5.05;;;1.50;;
8228;SDS011;4155;50.118;8.714;2022-07-26T07:37:23;3.63;;;1.73;;
8228;SDS011;4155;50.118;8.714;2022-07-26T07:39:51;3.73;;;1.50;;
8228;SDS011;4155;50.118;8.714;2022-07-26T07:42:19;3.47;;;1.87;;
8228;SDS011;4155;50.118;8.714;2022-07-26T07:44:47;5.73;;;1.60;;
8228;SDS011;4155;50.118;8.714;2022-07-26T07:47:15;4.60;;;1.30;;
8228;SDS011;4155;50.118;8.714;2022-07-26T07:49:42;5.03;;;1.60;;
8228;SDS011;4155;50.118;8.714;2022-07-26T07:52:11;4.13;;;1.80;;
8228;SDS011;4155;50.118;8.714;2022-07-26T07:54:40;4.20;;;1.50;;
8228;SDS011;4155;50.118;8.714;2022-07-26T07:57:08;4.87;;;1.80;;
8228;SDS011;4155;50.118;8.714;2022-07-26T07:59:38;3.37;;;1.60;;
8228;SDS011;4155;50.118;8.714;2022-07-26T08:02:06;7.30;;;1.80;;
8228;SDS011;4155;50.118;8.714;2022-07-26T08:04:34;2.33;;;1.30;;
8228;SDS011;4155;50.118;8.714;2022-07-26T08:07:02;5.22;;;1.95;;
8228;SDS011;4155;50.118;8.714;2022-07-26T08:09:31;2.80;;;1.33;;
8228;SDS011;4155;50.118;8.714;2022-07-26T08:11:59;2.17;;;1.40;;
8228;SDS011;4155;50.118;8.714;2022-07-26T08:14:27;3.35;;;1.20;;
8228;SDS011;4155;50.118;8.714;2022-07-26T08:16:55;6.03;;;1.33;;
8228;SDS011;4155;50.118;8.714;2022-07-26T08:19:23;4.72;;;1.45;;
8228;SDS011;4155;50.118;8.714;2022-07-26T08:21:54;5.35;;;1.50;;
8228;SDS011;4155;50.118;8.714;2022-07-26T08:24:22;5.60;;;2.00;;
8228;SDS011;4155;50.118;8.714;2022-07-26T08:26:52;6.73;;;1.70;;
8228;SDS011;4155;50.118;8.714;2022-07-26T08:29:19;3.33;;;1.60;;
8228;SDS011;4155;50.118;8.714;2022-07-26T08:31:47;5.80;;;1.77;;
8228;SDS011;4155;50.118;8.714;2022-07-26T08:34:18;1.80;;;1.20;;
8228;SDS011;4155;50.118;8.714;2022-07-26T08:36:48;3.73;;;1.50;;
8228;SDS011;4155;50.118;8.714;2022-07-26T08:39:35;5.30;;;1.70;;
8228;SDS011;4155;50.118;8.714;2022-07-26T08:42:10;4.37;;;1.37;;
8228;SDS011;4155;50.118;8.714;2022-07-26T08:44:40;2.13;;;1.30;;
8228;SDS011;4155;50.118;8.714;2022-07-26T08:47:09;4.20;;;2.10;;
8228;SDS011;4155;50.118;8.714;2022-07-26T08:49:37;4.83;;;1.40;;
8228;SDS011;4155;50.118;8.714;2022-07-26T08:52:05;2.13;;;1.10;;
8228;SDS011;4155;50.118;8.714;2022-07-26T08:54:34;2.20;;;1.37;;
8228;SDS011;4155;50.118;8.714;2022-07-26T08:57:01;3.33;;;1.50;;
8228;SDS011;4155;50.118;8.714;2022-07-26T08:59:30;2.57;;;1.30;;
8228;SDS011;4155;50.118;8.714;2022-07-26T09:01:59;5.07;;;1.33;;
8228;SDS011;4155;50.118;8.714;2022-07-26T09:04:29;3.43;;;1.40;;
8228;SDS011;4155;50.118;8.714;2022-07-26T09:07:09;1.63;;;1.10;;
8228;SDS011;4155;50.118;8.714;2022-07-26T09:09:39;2.80;;;1.67;;
8228;SDS011;4155;50.118;8.714;2022-07-26T09:12:22;1.63;;;1.20;;
8228;SDS011;4155;50.118;8.714;2022-07-26T09:14:52;2.80;;;1.60;;
8228;SDS011;4155;50.118;8.714;2022-07-26T09:17:22;1.50;;;1.40;;
8228;SDS011;4155;50.118;8.714;2022-07-26T09:20:03;3.63;;;1.30;;
8228;SDS011;4155;50.118;8.714;2022-07-26T09:22:32;4.07;;;1.40;;
8228;SDS011;4155;50.118;8.714;2022-07-26T09:25:01;3.43;;;1.27;;
8228;SDS011;4155;50.118;8.714;2022-07-26T09:27:33;2.10;;;1.50;;
8228;SDS011;4155;50.118;8.714;2022-07-26T09:30:05;6.00;;;1.47;;
8228;SDS011;4155;50.118;8.714;2022-07-26T09:32:35;3.20;;;1.60;;
8228;SDS011;4155;50.118;8.714;2022-07-26T09:35:09;2.10;;;1.30;;
8228;SDS011;4155;50.118;8.714;2022-07-26T09:38:10;5.50;;;1.67;;
8228;SDS011;4155;50.118;8.714;2022-07-26T09:40:39;3.77;;;1.40;;
8228;SDS011;4155;50.118;8.714;2022-07-26T09:43:10;3.37;;;1.47;;
8228;SDS011;4155;50.118;8.714;2022-07-26T09:45:48;1.57;;;1.20;;
8228;SDS011;4155;50.118;8.714;2022-07-26T09:48:29;4.20;;;1.20;;
8228;SDS011;4155;50.118;8.714;2022-07-26T09:51:20;6.87;;;1.30;;
8228;SDS011;4155;50.118;8.714;2022-07-26T09:54:02;1.40;;;1.20;;
8228;SDS011;4155;50.118;8.714;2022-07-26T09:56:43;1.43;;;1.30;;
8228;SDS011;4155;50.118;8.714;2022-07-26T09:59:13;3.03;;;1.33;;
8228;SDS011;4155;50.118;8.714;2022-07-26T10:01:43;6.37;;;1.10;;
8228;SDS011;4155;50.118;8.714;2022-07-26T10:04:11;2.20;;;1.40;;
8228;SDS011;4155;50.118;8.714;2022-07-26T10:06:40;2.47;;;1.37;;
8228;SDS011;4155;50.118;8.714;2022-07-26T10:09:08;1.87;;;1.40;;
8228;SDS011;4155;50.118;8.714;2022-07-26T10:11:38;6.00;;;1.40;;
8228;SDS011;4155;50.118;8.714;2022-07-26T10:26:35;2.47;;;1.17;;
8228;SDS011;4155;50.118;8.714;2022-07-26T10:32:13;4.00;;;1.60;;
8228;SDS011;4155;50.118;8.714;2022-07-26T10:34:48;5.73;;;1.73;;
8228;SDS011;4155;50.118;8.714;2022-07-26T10:37:21;2.00;;;1.60;;
8228;SDS011;4155;50.118;8.714;2022-07-26T10:42:47;3.20;;;1.70;;
8228;SDS011;4155;50.118;8.714;2022-07-26T10:45:16;7.50;;;1.70;;
8228;SDS011;4155;50.118;8.714;2022-07-26T10:50:38;2.90;;;1.37;;
8228;SDS011;4155;50.118;8.714;2022-07-26T10:53:08;1.47;;;1.33;;
8228;SDS011;4155;50.118;8.714;2022-07-26T10:55:48;3.47;;;1.50;;
8228;SDS011;4155;50.118;8.714;2022-07-26T10:58:18;1.67;;;1.40;;
8228;SDS011;4155;50.118;8.714;2022-07-26T11:00:53;2.73;;;1.57;;
8228;SDS011;4155;50.118;8.714;2022-07-26T11:03:22;2.50;;;1.33;;
8228;SDS011;4155;50.118;8.714;2022-07-26T11:05:49;10.23;;;1.63;;
8228;SDS011;4155;50.118;8.714;2022-07-26T11:08:18;1.50;;;1.23;;
8228;SDS011;4155;50.118;8.714;2022-07-26T11:10:46;6.93;;;1.80;;
8228;SDS011;4155;50.118;8.714;2022-07-26T11:13:15;1.63;;;1.30;;
8228;SDS011;4155;50.118;8.714;2022-07-26T11:15:45;4.63;;;1.37;;
8228;SDS011;4155;50.118;8.714;2022-07-26T11:18:16;1.87;;;1.20;;
8228;SDS011;4155;50.118;8.714;2022-07-26T11:20:47;2.87;;;1.40;;
8228;SDS011;4155;50.118;8.714;2022-07-26T11:23:29;1.23;;;1.07;;
8228;SDS011;4155;50.118;8.714;2022-07-26T11:28:48;2.33;;;1.20;;
8228;SDS011;4155;50.118;8.714;2022-07-26T11:31:22;2.70;;;1.30;;
8228;SDS011;4155;50.118;8.714;2022-07-26T11:34:14;2.63;;;1.20;;
8228;SDS011;4155;50.118;8.714;2022-07-26T11:36:44;1.97;;;1.30;;
8228;SDS011;4155;50.118;8.714;2022-07-26T11:39:18;1.97;;;1.30;;
8228;SDS011;4155;50.118;8.714;2022-07-26T11:41:47;5.53;;;1.20;;
8228;SDS011;4155;50.118;8.714;2022-07-26T11:44:16;2.53;;;1.73;;
8228;SDS011;4155;50.118;8.714;2022-07-26T11:46:45;1.30;;;1.20;;
8228;SDS011;4155;50.118;8.714;2022-07-26T11:49:14;2.10;;;1.27;;
8228;SDS011;4155;50.118;8.714;2022-07-26T11:51:50;1.40;;;1.30;;
8228;SDS011;4155;50.118;8.714;2022-07-26T11:54:20;3.10;;;1.60;;
8228;SDS011;4155;50.118;8.714;2022-07-26T11:56:49;1.43;;;1.10;;
8228;SDS011;4155;50.118;8.714;2022-07-26T11:59:18;3.83;;;1.40;;
8228;SDS011;4155;50.118;8.714;2022-07-26T12:01:47;2.70;;;1.23;;
8228;SDS011;4155;50.118;8.714;2022-07-26T12:04:19;3.53;;;1.77;;
8228;SDS011;4155;50.118;8.714;2022-07-26T12:06:48;6.60;;;1.60;;
8228;SDS011;4155;50.118;8.714;2022-07-26T12:09:28;4.30;;;1.77;;
8228;SDS011;4155;50.118;8.714;2022-07-26T12:11:57;2.80;;;1.57;;
8228;SDS011;4155;50.118;8.714;2022-07-26T12:14:25;1.77;;;1.57;;
8228;SDS011;4155;50.118;8.714;2022-07-26T12:16:53;3.23;;;1.70;;
8228;SDS011;4155;50.118;8.714;2022-07-26T12:19:22;2.80;;;1.57;;
8228;SDS011;4155;50.118;8.714;2022-07-26T12:21:53;5.17;;;1.60;;
8228;SDS011;4155;50.118;8.714;2022-07-26T12:24:43;2.80;;;1.87;;
8228;SDS011;4155;50.118;8.714;2022-07-26T12:27:13;3.03;;;1.27;;
8228;SDS011;4155;50.118;8.714;2022-07-26T12:29:45;2.43;;;1.60;;
8228;SDS011;4155;50.118;8.714;2022-07-26T12:32:15;2.70;;;1.33;;
8228;SDS011;4155;50.118;8.714;2022-07-26T12:34:54;2.80;;;1.20;;
8228;SDS011;4155;50.118;8.714;2022-07-26T12:37:24;4.63;;;1.60;;
8228;SDS011;4155;50.118;8.714;2022-07-26T12:40:09;2.03;;;1.77;;
8228;SDS011;4155;50.118;8.714;2022-07-26T12:42:42;4.43;;;1.67;;
8228;SDS011;4155;50.118;8.714;2022-07-26T12:45:11;1.60;;;1.50;;
8228;SDS011;4155;50.118;8.714;2022-07-26T12:47:43;2.03;;;1.10;;
8228;SDS011;4155;50.118;8.714;2022-07-26T12:50:13;2.00;;;1.27;;
8228;SDS011;4155;50.118;8.714;2022-07-26T12:52:43;4.50;;;1.37;;
8228;SDS011;4155;50.118;8.714;2022-07-26T12:55:13;2.23;;;1.50;;
8228;SDS011;4155;50.118;8.714;2022-07-26T12:57:44;1.97;;;1.70;;
8228;SDS011;4155;50.118;8.714;2022-07-26T13:00:14;2.80;;;1.50;;
8228;SDS011;4155;50.118;8.714;2022-07-26T13:02:44;2.10;;;1.30;;
8228;SDS011;4155;50.118;8.714;2022-07-26T13:05:12;1.83;;;1.40;;
8228;SDS011;4155;50.118;8.714;2022-07-26T13:07:40;6.30;;;1.90;;
8228;SDS011;4155;50.118;8.714;2022-07-26T13:10:08;2.37;;;1.57;;
8228;SDS011;4155;50.118;8.714;2022-07-26T13:12:59;1.67;;;1.57;;
8228;SDS011;4155;50.118;8.714;2022-07-26T13:15:27;1.80;;;1.30;;
8228;SDS011;4155;50.118;8.714;2022-07-26T13:18:03;3.37;;;1.57;;
8228;SDS011;4155;50.118;8.714;2022-07-26T13:20:31;3.23;;;1.47;;
8228;SDS011;4155;50.118;8.714;2022-07-26T13:23:00;3.27;;;1.90;;
8228;SDS011;4155;50.118;8.714;2022-07-26T13:25:28;3.43;;;1.40;;
8228;SDS011;4155;50.118;8.714;2022-07-26T13:28:06;4.37;;;1.57;;
8228;SDS011;4155;50.118;8.714;2022-07-26T13:30:35;3.70;;;1.60;;
8228;SDS011;4155;50.118;8.714;2022-07-26T13:33:04;3.93;;;1.50;;
8228;SDS011;4155;50.118;8.714;2022-07-26T13:35:32;4.20;;;1.60;;
8228;SDS011;4155;50.118;8.714;2022-07-26T13:38:00;5.03;;;1.47;;
8228;SDS011;4155;50.118;8.714;2022-07-26T13:40:28;2.00;;;1.70;;
8228;SDS011;4155;50.118;8.714;2022-07-26T13:42:57;3.13;;;1.80;;
8228;SDS011;4155;50.118;8.714;2022-07-26T13:45:27;6.90;;;1.73;;
8228;SDS011;4155;50.118;8.714;2022-07-26T13:47:55;2.07;;;1.77;;
8228;SDS011;4155;50.118;8.714;2022-07-26T13:50:24;1.93;;;1.47;;
8228;SDS011;4155;50.118;8.714;2022-07-26T13:52:52;2.30;;;1.57;;
8228;SDS011;4155;50.118;8.714;2022-07-26T13:55:20;1.60;;;1.50;;
8228;SDS011;4155;50.118;8.714;2022-07-26T13:57:48;1.77;;;1.60;;
8228;SDS011;4155;50.118;8.714;2022-07-26T14:00:23;1.53;;;1.37;;
8228;SDS011;4155;50.118;8.714;2022-07-26T14:02:52;2.10;;;1.40;;
8228;SDS011;4155;50.118;8.714;2022-07-26T14:05:20;2.53;;;1.50;;
8228;SDS011;4155;50.118;8.714;2022-07-26T14:07:48;2.30;;;1.63;;
8228;SDS011;4155;50.118;8.714;2022-07-26T14:10:16;2.27;;;1.60;;
8228;SDS011;4155;50.118;8.714;2022-07-26T14:12:44;2.40;;;1.40;;
8228;SDS011;4155;50.118;8.714;2022-07-26T14:15:13;3.73;;;1.37;;
8228;SDS011;4155;50.118;8.714;2022-07-26T14:17:47;2.03;;;1.50;;
8228;SDS011;4155;50.118;8.714;2022-07-26T14:20:16;2.70;;;2.10;;
8228;SDS011;4155;50.118;8.714;2022-07-26T14:22:45;1.73;;;1.63;;
8228;SDS011;4155;50.118;8.714;2022-07-26T14:25:13;2.20;;;1.80;;
8228;SDS011;4155;50.118;8.714;2022-07-26T14:27:40;4.27;;;1.67;;
8228;SDS011;4155;50.118;8.714;2022-07-26T14:30:08;2.20;;;1.67;;
8228;SDS011;4155;50.118;8.714;2022-07-26T14:32:37;2.70;;;1.90;;
8228;SDS011;4155;50.118;8.714;2022-07-26T14:35:05;5.40;;;1.60;;
8228;SDS011;4155;50.118;8.714;2022-07-26T14:37:35;1.73;;;1.50;;
8228;SDS011;4155;50.118;8.714;2022-07-26T14:40:11;3.13;;;1.97;;
8228;SDS011;4155;50.118;8.714;2022-07-26T14:42:39;5.20;;;1.87;;
8228;SDS011;4155;50.118;8.714;2022-07-26T14:45:08;2.43;;;1.70;;
8228;SDS011;4155;50.118;8.714;2022-07-26T14:47:37;2.73;;;1.50;;
8228;SDS011;4155;50.118;8.714;2022-07-26T14:50:06;1.50;;;1.40;;
8228;SDS011;4155;50.118;8.714;2022-07-26T14:52:37;9.03;;;1.70;;
8228;SDS011;4155;50.118;8.714;2022-07-26T14:55:06;3.43;;;1.90;;
8228;SDS011;4155;50.118;8.714;2022-07-26T14:57:35;2.17;;;1.70;;
8228;SDS011;4155;50.118;8.714;2022-07-26T15:00:06;3.40;;;2.03;;
8228;SDS011;4155;50.118;8.714;2022-07-26T15:02:37;7.30;;;1.90;;
8228;SDS011;4155;50.118;8.714;2022-07-26T15:05:05;3.00;;;1.93;;
8228;SDS011;4155;50.118;8.714;2022-07-26T15:07:33;4.70;;;1.87;;
8228;SDS011;4155;50.118;8.714;2022-07-26T15:10:03;5.43;;;2.00;;
8228;SDS011;4155;50.118;8.714;2022-07-26T15:12:33;3.93;;;1.63;;
8228;SDS011;4155;50.118;8.714;2022-07-26T15:15:01;1.80;;;1.70;;
8228;SDS011;4155;50.118;8.714;2022-07-26T15:17:29;2.77;;;1.60;;
8228;SDS011;4155;50.118;8.714;2022-07-26T15:19:57;3.63;;;1.80;;
8228;SDS011;4155;50.118;8.714;2022-07-26T15:22:25;5.03;;;2.10;;
8228;SDS011;4155;50.118;8.714;2022-07-26T15:24:52;3.70;;;1.60;;
8228;SDS011;4155;50.118;8.714;2022-07-26T15:27:21;3.47;;;1.90;;
8228;SDS011;4155;50.118;8.714;2022-07-26T15:29:49;2.80;;;1.73;;
8228;SDS011;4155;50.118;8.714;2022-07-26T15:32:18;2.43;;;1.83;;
8228;SDS011;4155;50.118;8.714;2022-07-26T15:34:46;4.27;;;1.80;;
8228;SDS011;4155;50.118;8.714;2022-07-26T15:37:14;2.33;;;2.10;;
8228;SDS011;4155;50.118;8.714;2022-07-26T15:39:41;9.30;;;2.13;;
8228;SDS011;4155;50.118;8.714;2022-07-26T15:42:09;3.27;;;1.90;;
8228;SDS011;4155;50.118;8.714;2022-07-26T15:44:41;1.90;;;1.80;;
8228;SDS011;4155;50.118;8.714;2022-07-26T15:47:09;3.80;;;2.33;;
8228;SDS011;4155;50.118;8.714;2022-07-26T15:49:56;6.80;;;1.80;;
8228;SDS011;4155;50.118;8.714;2022-07-26T15:52:25;2.87;;;1.90;;
8228;SDS011;4155;50.118;8.714;2022-07-26T15:54:53;6.87;;;1.80;;